Time;durP1;ratioP1;P1;durP2;ratioP2;P2;SDS_P1;SDS_P2;PMS_P1;PMS_P2;Temp;Humidity;BMP_temperature;BMP_pressure;BME280_temperature;BME280_humidity;BME280_pressure;Samples;Min_cycle;Max_cycle;Signal;HPM_P1;HPM_P2
2021/12/25 00:01:40;;;;;;;17.82;14.87;;;;;;;1.27;82.11;99562.12;1758248;80;21900;-80
2021/12/25 00:04:07;;;;;;;16.93;14.03;;;;;;;1.29;82.06;99561.19;1758223;80;21374;-81
2021/12/25 00:06:35;;;;;;;18.87;13.62;;;;;;;1.34;82.01;99558.42;1758167;80;20888;-80
2021/12/25 00:09:03;;;;;;;21.70;15.98;;;;;;;1.38;81.64;99563.83;1758243;80;21450;-80
2021/12/25 00:11:30;;;;;;;18.42;14.07;;;;;;;1.39;81.54;99563.78;1758225;81;20948;-80
2021/12/25 00:13:57;;;;;;;20.27;14.98;;;;;;;1.42;81.39;99568.84;1758228;80;21105;-80
2021/12/25 00:16:25;;;;;;;19.50;15.35;;;;;;;1.45;81.29;99565.30;1758200;80;20932;-80
2021/12/25 00:18:52;;;;;;;20.57;15.23;;;;;;;1.49;81.06;99553.94;1758230;80;20896;-79
2021/12/25 00:21:19;;;;;;;23.30;16.82;;;;;;;1.51;80.85;99547.40;1758168;80;20904;-80
2021/12/25 00:23:46;;;;;;;28.07;19.62;;;;;;;1.53;80.64;99543.84;1758208;80;20928;-81
2021/12/25 00:26:26;;;;;;;26.90;18.95;;;;;;;1.53;80.18;99532.22;1758363;80;21512;-81
2021/12/25 00:36:19;;;;;;;25.48;17.67;;;;;;;1.56;79.22;99527.41;1758371;80;21015;-80
2021/12/25 00:38:46;;;;;;;30.68;18.70;;;;;;;1.54;79.06;99530.50;1758171;80;21191;-81
2021/12/25 00:41:17;;;;;;;25.02;18.57;;;;;;;1.52;78.82;99531.02;1758039;80;20881;-79
2021/12/25 00:43:44;;;;;;;29.27;20.15;;;;;;;1.50;78.71;99528.48;1757536;80;21390;-80
2021/12/25 00:46:11;;;;;;;25.97;17.67;;;;;;;1.49;78.57;99537.58;1758388;81;20940;-80
2021/12/25 00:48:39;;;;;;;25.15;18.50;;;;;;;1.48;78.28;99537.20;1758373;81;20951;-81
2021/12/25 00:51:06;;;;;;;27.95;19.50;;;;;;;1.48;78.33;99536.75;1758882;81;21023;-80
2021/12/25 00:53:32;;;;;;;26.90;18.62;;;;;;;1.51;78.39;99542.23;1758134;80;20872;-80
2021/12/25 00:55:59;;;;;;;26.15;19.37;;;;;;;1.54;78.31;99540.38;1758142;81;20928;-80
2021/12/25 00:58:27;;;;;;;31.57;20.80;;;;;;;1.55;78.09;99531.72;1757860;81;20884;-80
2021/12/25 01:00:55;;;;;;;31.93;21.75;;;;;;;1.55;77.65;99525.71;1757847;81;20896;-79
2021/12/25 01:03:23;;;;;;;34.25;22.15;;;;;;;1.52;77.27;99534.89;1758117;81;21885;-79
2021/12/25 01:05:50;;;;;;;27.32;19.75;;;;;;;1.45;77.06;99530.42;1757782;81;20979;-80
2021/12/25 01:08:17;;;;;;;29.20;20.52;;;;;;;1.40;76.98;99533.62;1758004;81;20892;-79
2021/12/25 01:10:45;;;;;;;30.82;21.07;;;;;;;1.37;77.08;99528.59;1757983;81;21337;-80
2021/12/25 01:13:20;;;;;;;27.45;20.60;;;;;;;1.33;77.20;99526.56;1757907;80;20932;-79
2021/12/25 01:32:56;;;;;;;33.13;22.05;;;;;;;1.13;77.47;99518.31;1757854;81;20964;-79
2021/12/25 01:38:01;;;;;;;36.53;22.98;;;;;;;1.08;77.25;99512.95;1758012;81;20900;-79
2021/12/25 01:49:03;;;;;;;34.10;22.25;;;;;;;0.98;77.80;99522.34;1744742;81;20889;-80
2021/12/25 01:51:31;;;;;;;37.28;20.62;;;;;;;0.99;77.90;99512.86;1744580;81;20936;-81
2021/12/25 01:53:58;;;;;;;34.35;23.20;;;;;;;0.98;77.82;99509.44;1744482;81;21533;-79
2021/12/25 01:56:25;;;;;;;36.17;24.32;;;;;;;0.95;77.74;99512.13;1744519;81;21105;-79
2021/12/25 01:58:52;;;;;;;35.90;23.73;;;;;;;0.95;77.61;99507.41;1744759;80;20930;-80
2021/12/25 02:01:19;;;;;;;36.58;23.52;;;;;;;0.94;77.52;99519.48;1744491;81;20992;-80
2021/12/25 02:03:47;;;;;;;28.25;20.37;;;;;;;0.95;77.52;99521.16;1744417;81;20874;-78
2021/12/25 02:06:13;;;;;;;29.02;20.17;;;;;;;0.93;77.36;99537.14;1744546;81;20889;-80
2021/12/25 02:08:42;;;;;;;32.00;21.30;;;;;;;0.91;77.21;99532.95;1744571;81;21366;-79
2021/12/25 02:11:10;;;;;;;29.77;20.72;;;;;;;0.86;77.12;99525.84;1744497;81;21534;-79
2021/12/25 02:13:40;;;;;;;28.45;18.77;;;;;;;0.86;77.13;99533.58;1744564;81;21473;-80
2021/12/25 02:16:16;;;;;;;25.57;19.85;;;;;;;0.81;77.11;99520.39;1744499;80;21067;-80
2021/12/25 02:19:05;;;;;;;26.57;20.00;;;;;;;0.79;77.06;99517.03;1744522;80;20983;-79
2021/12/25 02:21:38;;;;;;;26.55;19.42;;;;;;;0.77;77.17;99526.56;1744080;81;21157;-77
2021/12/25 02:24:10;;;;;;;27.05;18.27;;;;;;;0.74;77.17;99521.53;1744544;81;20877;-79
2021/12/25 02:26:38;;;;;;;24.63;17.30;;;;;;;0.70;77.44;99521.70;1744452;81;20987;-80
2021/12/25 02:29:05;;;;;;;26.50;18.52;;;;;;;0.67;77.55;99525.66;1744545;81;20878;-81
2021/12/25 02:31:32;;;;;;;26.25;17.07;;;;;;;0.64;77.65;99520.63;1744875;81;20979;-79
2021/12/25 02:33:59;;;;;;;21.65;16.73;;;;;;;0.60;77.71;99514.31;1744611;81;21366;-80
2021/12/25 02:36:26;;;;;;;27.05;16.85;;;;;;;0.56;77.76;99515.31;1744590;82;20936;-80
2021/12/25 02:38:53;;;;;;;17.57;14.40;;;;;;;0.52;77.90;99512.45;1744604;81;20865;-80
2021/12/25 02:41:20;;;;;;;24.45;17.07;;;;;;;0.48;78.00;99515.20;1744633;81;20924;-81
2021/12/25 02:43:47;;;;;;;21.90;15.83;;;;;;;0.42;78.09;99513.67;1752761;81;20892;-80
2021/12/25 02:46:16;;;;;;;21.80;16.25;;;;;;;0.37;78.31;99513.84;1759344;80;21085;-80
2021/12/25 02:48:43;;;;;;;24.55;15.43;;;;;;;0.30;78.49;99505.94;1758071;81;20873;-79
2021/12/25 02:51:11;;;;;;;22.67;15.70;;;;;;;0.28;78.75;99502.57;1757853;81;20900;-80
2021/12/25 02:53:38;;;;;;;21.55;14.95;;;;;;;0.24;78.82;99500.16;1757933;80;20983;-79
2021/12/25 02:56:06;;;;;;;26.75;17.17;;;;;;;0.23;78.88;99499.33;1757894;81;20843;-79
2021/12/25 02:58:36;;;;;;;19.45;14.50;;;;;;;0.22;78.97;99498.08;1758147;80;21861;-81
2021/12/25 03:01:08;;;;;;;24.92;17.75;;;;;;;0.19;79.06;99493.42;1757681;81;21426;-83
2021/12/25 03:03:34;;;;;;;21.17;14.60;;;;;;;0.18;79.13;99503.36;1757803;81;20936;-81
2021/12/25 03:06:04;;;;;;;22.40;16.85;;;;;;;0.17;79.19;99502.95;1758078;80;21362;-80
2021/12/25 03:08:33;;;;;;;23.52;15.88;;;;;;;0.17;79.23;99505.98;1757818;81;21513;-81
2021/12/25 03:11:03;;;;;;;22.42;14.35;;;;;;;0.19;79.32;99499.04;1757934;81;21377;-80
2021/12/25 03:16:10;;;;;;;21.75;15.13;;;;;;;0.18;79.34;99494.80;1757790;81;20932;-78
2021/12/25 03:18:43;;;;;;;20.30;15.35;;;;;;;0.17;79.40;99493.09;1757807;81;20901;-80
2021/12/25 03:21:09;;;;;;;18.87;15.50;;;;;;;0.16;79.46;99492.71;1758172;81;20967;-80
2021/12/25 03:23:36;;;;;;;21.33;16.42;;;;;;;0.16;79.51;99485.81;1758146;80;21129;-79
2021/12/25 03:26:05;;;;;;;22.70;15.95;;;;;;;0.16;79.56;99486.27;1757752;81;20958;-80
2021/12/25 03:28:36;;;;;;;24.30;15.85;;;;;;;0.16;79.59;99495.30;1757795;81;21481;-79
2021/12/25 03:31:05;;;;;;;23.22;17.50;;;;;;;0.16;79.61;99508.18;1757944;80;20928;-80
2021/12/25 03:33:32;;;;;;;28.32;16.82;;;;;;;0.15;79.59;99500.03;1758022;81;21453;-79
2021/12/25 03:36:01;;;;;;;26.15;16.82;;;;;;;0.15;79.59;99494.88;1757832;81;21124;-78
2021/12/25 03:38:28;;;;;;;25.60;16.37;;;;;;;0.16;79.62;99501.28;1758256;80;21086;-77
2021/12/25 03:40:55;;;;;;;23.65;18.12;;;;;;;0.14;79.56;99496.63;1758822;81;20943;-76
2021/12/25 03:43:22;;;;;;;25.27;17.23;;;;;;;0.13;79.54;99486.36;1757377;80;20964;-78
2021/12/25 03:45:50;;;;;;;22.17;17.40;;;;;;;0.13;79.51;99493.64;1745348;81;20908;-81
2021/12/25 03:48:42;;;;;;;25.55;17.27;;;;;;;0.12;79.52;99504.86;1744966;81;21445;-81
2021/12/25 03:59:07;;;;;;;27.32;16.73;;;;;;;0.08;79.40;99514.05;1744824;81;20893;-78
2021/12/25 04:04:13;;;;;;;22.70;17.30;;;;;;;0.05;79.35;99519.31;1744399;82;20885;-79
2021/12/25 04:06:46;;;;;;;23.90;16.00;;;;;;;0.05;79.34;99519.31;1744377;81;20960;-79
2021/12/25 04:09:20;;;;;;;23.05;16.70;;;;;;;0.03;79.36;99522.39;1744618;81;20956;-79
2021/12/25 04:11:40;;;;;;;24.60;16.90;;;;;;;0.03;79.39;99524.97;1743955;81;21003;-79
2021/12/25 04:14:07;;;;;;;26.40;16.97;;;;;;;0.05;79.42;99529.63;1744470;82;21146;-79
2021/12/25 04:16:35;;;;;;;25.88;17.10;;;;;;;0.06;79.45;99520.98;1744470;82;20877;-78
2021/12/25 04:19:02;;;;;;;24.23;17.80;;;;;;;0.08;79.41;99529.50;1744309;81;20889;-79
2021/12/25 04:21:30;;;;;;;21.62;16.07;;;;;;;0.11;79.39;99523.81;1744391;81;20953;-80
2021/12/25 04:23:57;;;;;;;23.50;17.00;;;;;;;0.14;79.32;99513.83;1744516;81;20916;-80
2021/12/25 04:26:25;;;;;;;27.55;18.70;;;;;;;0.16;79.33;99513.34;1744392;81;21522;-80
2021/12/25 04:29:16;;;;;;;25.92;17.35;;;;;;;0.20;79.39;99525.20;1744641;81;20925;-80
2021/12/25 04:31:32;;;;;;;25.37;17.25;;;;;;;0.26;79.24;99517.70;1740168;81;21522;-79
2021/12/25 04:48:17;;;;;;;24.15;16.85;;;;;;;0.52;79.02;99542.57;1750293;80;20909;-78
2021/12/25 05:04:16;;;;;;;26.90;17.92;;;;;;;0.77;78.84;99527.86;1703072;80;20929;-81
2021/12/25 05:06:40;;;;;;;24.57;16.30;;;;;;;0.81;78.86;99529.88;1749238;81;21142;-78
2021/12/25 05:09:07;;;;;;;25.85;17.90;;;;;;;0.85;78.82;99521.59;1750100;81;20932;-79
2021/12/25 05:11:34;;;;;;;25.57;16.00;;;;;;;0.88;78.89;99509.84;1750559;81;20924;-79
2021/12/25 05:14:01;;;;;;;25.48;16.10;;;;;;;0.91;78.93;99511.01;1750290;82;20933;-78
2021/12/25 05:16:32;;;;;;;26.05;16.80;;;;;;;0.93;79.02;99510.50;1748756;80;21394;-78
2021/12/25 05:19:00;;;;;;;29.55;18.40;;;;;;;0.97;79.12;99508.20;1750121;81;21124;-79
2021/12/25 05:21:26;;;;;;;27.65;20.02;;;;;;;1.02;79.16;99518.75;1750371;80;20841;-80
2021/12/25 05:23:53;;;;;;;23.47;17.95;;;;;;;1.06;79.20;99518.16;1750371;81;20909;-79
2021/12/25 05:26:22;;;;;;;23.00;16.62;;;;;;;1.11;79.16;99527.02;1750234;80;20956;-78
2021/12/25 05:28:58;;;;;;;25.85;16.48;;;;;;;1.15;79.14;99542.79;1750173;81;20845;-79
2021/12/25 05:31:18;;;;;;;20.85;15.95;;;;;;;1.18;79.19;99559.02;1749317;81;21951;-82
2021/12/25 05:33:52;;;;;;;20.57;15.63;;;;;;;1.22;79.27;99565.75;1749132;80;20979;-79
2021/12/25 05:36:28;;;;;;;24.37;16.25;;;;;;;1.28;79.25;99584.02;1749192;82;20900;-79
2021/12/25 05:39:08;;;;;;;27.00;17.65;;;;;;;1.33;79.26;99598.05;1748197;81;21401;-84
2021/12/25 05:41:34;;;;;;;26.62;17.65;;;;;;;1.37;79.22;99591.87;1752687;81;20913;-80
2021/12/25 05:44:03;;;;;;;22.30;17.37;;;;;;;1.42;79.13;99619.64;1752985;80;21227;-79
2021/12/25 05:46:34;;;;;;;27.22;18.85;;;;;;;1.48;79.01;99616.00;1748151;80;21015;-79
2021/12/25 05:49:02;;;;;;;27.95;18.82;;;;;;;1.50;78.96;99627.95;1758740;81;20943;-79
2021/12/25 05:51:34;;;;;;;26.05;17.62;;;;;;;1.53;78.94;99626.52;1738625;81;20927;-79
2021/12/25 05:54:17;;;;;;;24.63;18.25;;;;;;;1.56;78.89;99624.30;1758268;81;20884;-79
2021/12/25 05:57:03;;;;;;;26.15;18.55;;;;;;;1.60;78.82;99631.00;1758006;80;21152;-79
2021/12/25 05:59:50;;;;;;;28.62;19.48;;;;;;;1.63;78.82;99645.95;1756962;81;21433;-80
2021/12/25 06:02:21;;;;;;;28.95;20.45;;;;;;;1.69;78.71;99644.02;1755404;81;21133;-79
2021/12/25 06:04:48;;;;;;;28.75;19.77;;;;;;;1.71;78.61;99652.55;1758214;81;21444;-79
2021/12/25 06:07:15;;;;;;;33.53;19.57;;;;;;;1.73;78.50;99653.34;1757865;81;20849;-80
2021/12/25 06:09:42;;;;;;;27.65;16.50;;;;;;;1.75;78.40;99655.41;1760275;81;21713;-79
2021/12/25 06:12:11;;;;;;;25.62;18.85;;;;;;;1.78;78.35;99659.16;1758854;81;20959;-78
2021/12/25 06:14:38;;;;;;;24.02;18.20;;;;;;;1.80;78.34;99662.09;1757873;80;20927;-77
2021/12/25 06:17:10;;;;;;;26.23;18.20;;;;;;;1.85;78.32;99651.58;1757779;81;20975;-79
2021/12/25 06:19:39;;;;;;;27.75;18.12;;;;;;;1.89;78.26;99658.31;1756680;81;20967;-78
2021/12/25 06:22:20;;;;;;;29.85;19.90;;;;;;;1.92;78.18;99653.01;1755666;81;21992;-78
2021/12/25 06:24:53;;;;;;;27.55;18.95;;;;;;;1.97;78.12;99655.41;1756490;81;21604;-77
2021/12/25 06:27:20;;;;;;;28.90;20.12;;;;;;;1.98;78.04;99655.35;1750685;80;21458;-80
2021/12/25 06:29:58;;;;;;;25.37;19.30;;;;;;;2.01;78.03;99656.97;1756666;81;20939;-79
2021/12/25 06:32:29;;;;;;;29.40;18.15;;;;;;;2.03;78.05;99649.53;1736718;80;20939;-79
2021/12/25 06:35:07;;;;;;;26.75;19.75;;;;;;;2.08;78.08;99650.64;1755261;81;21201;-80
2021/12/25 06:37:36;;;;;;;25.40;18.27;;;;;;;2.12;78.09;99647.48;1755943;81;20881;-82
2021/12/25 06:40:17;;;;;;;30.32;20.12;;;;;;;2.13;78.10;99634.94;1757572;80;20865;-79
2021/12/25 06:42:39;;;;;;;34.48;21.75;;;;;;;2.15;78.12;99643.47;1757344;80;20971;-80
2021/12/25 06:45:07;;;;;;;26.07;19.20;;;;;;;2.16;78.13;99646.00;1752278;81;20980;-80
2021/12/25 06:47:36;;;;;;;29.98;21.77;;;;;;;2.18;78.16;99640.75;1744499;81;22034;-79
2021/12/25 06:50:07;;;;;;;28.75;21.07;;;;;;;2.20;78.18;99638.52;1734399;82;21350;-79
2021/12/25 06:52:52;;;;;;;24.80;17.27;;;;;;;2.22;78.26;99635.41;1744756;81;21455;-79
2021/12/25 06:55:30;;;;;;;25.90;19.92;;;;;;;2.25;78.32;99637.86;1743218;81;20893;-79
2021/12/25 06:58:03;;;;;;;24.25;19.35;;;;;;;2.30;78.36;99633.78;1721263;81;21049;-79
2021/12/25 07:00:30;;;;;;;25.48;18.45;;;;;;;2.35;78.36;99637.01;1744459;81;21165;-78
2021/12/25 07:02:59;;;;;;;27.90;18.20;;;;;;;2.42;78.35;99653.98;1744351;81;20983;-80
2021/12/25 07:05:44;;;;;;;30.15;20.70;;;;;;;2.47;78.29;99650.73;1744581;81;20937;-79
2021/12/25 07:08:13;;;;;;;28.65;22.32;;;;;;;2.51;78.18;99642.83;1718906;81;20924;-83
2021/12/25 07:10:42;;;;;;;30.50;20.43;;;;;;;2.54;78.12;99653.08;1744302;81;20944;-83
2021/12/25 07:13:16;;;;;;;27.13;19.65;;;;;;;2.55;78.08;99645.68;1743612;81;21102;-82
2021/12/25 07:15:42;;;;;;;29.82;19.60;;;;;;;2.56;78.08;99649.51;1743751;81;20948;-83
2021/12/25 07:18:11;;;;;;;30.25;20.43;;;;;;;2.57;78.15;99670.59;1743356;81;21460;-83
2021/12/25 07:20:48;;;;;;;30.77;19.62;;;;;;;2.59;78.18;99690.77;1743723;81;20901;-83
2021/12/25 07:23:17;;;;;;;26.82;19.05;;;;;;;2.63;78.17;99689.75;1744093;81;20889;-83
2021/12/25 07:25:45;;;;;;;31.75;21.20;;;;;;;2.69;78.18;99700.27;1719133;81;21162;-83
2021/12/25 07:28:33;;;;;;;31.75;20.15;;;;;;;2.73;78.20;99690.64;1693803;81;20889;-84
2021/12/25 07:31:00;;;;;;;32.85;22.15;;;;;;;2.77;78.20;99696.09;1734138;82;20944;-83
2021/12/25 07:33:30;;;;;;;29.67;22.73;;;;;;;2.77;78.18;99697.38;1744770;82;21402;-83
2021/12/25 07:35:58;;;;;;;26.50;19.50;;;;;;;2.80;78.12;99705.87;1744690;81;20896;-82
2021/12/25 07:38:25;;;;;;;27.20;21.75;;;;;;;2.82;78.09;99709.20;1744661;81;21992;-82
2021/12/25 07:40:52;;;;;;;26.20;20.00;;;;;;;2.83;78.06;99717.38;1746085;81;20965;-80
2021/12/25 07:43:18;;;;;;;28.52;20.70;;;;;;;2.83;78.08;99714.78;1745571;81;21477;-79
2021/12/25 07:45:53;;;;;;;;;;;;;;;2.85;78.10;99716.86;1754667;80;20960;-82
2021/12/25 07:48:21;;;;;;;29.05;21.30;;;;;;;2.89;78.09;99722.73;1757966;81;20085;-82
2021/12/25 07:50:48;;;;;;;29.25;21.30;;;;;;;2.93;78.07;99711.80;1757853;80;21121;-81
2021/12/25 07:53:16;;;;;;;32.25;20.32;;;;;;;2.94;78.00;99721.27;1757839;81;20853;-82
2021/12/25 07:55:44;;;;;;;31.82;22.02;;;;;;;2.98;77.92;99724.08;1757821;81;20974;-80
2021/12/25 07:58:11;;;;;;;32.23;21.40;;;;;;;2.99;77.77;99723.19;1758075;81;20877;-85
2021/12/25 08:00:38;;;;;;;29.67;19.32;;;;;;;3.00;77.71;99716.66;1758043;81;20949;-81
2021/12/25 08:03:07;;;;;;;25.82;20.25;;;;;;;3.03;77.71;99727.34;1758624;81;21873;-83
2021/12/25 08:05:34;;;;;;;26.48;19.52;;;;;;;3.04;77.69;99733.72;1757297;81;20908;-83
2021/12/25 08:08:03;;;;;;;33.95;21.50;;;;;;;3.10;77.75;99731.34;1758611;81;20916;-81
2021/12/25 08:10:31;;;;;;;27.52;19.90;;;;;;;3.17;77.79;99735.34;1744545;81;20967;-80
2021/12/25 08:12:59;;;;;;;29.35;21.30;;;;;;;3.26;77.76;99736.22;1758571;81;20896;-78
2021/12/25 08:15:28;;;;;;;24.20;19.82;;;;;;;3.37;77.54;99742.69;1758026;81;21102;-86
2021/12/25 08:17:58;;;;;;;30.48;22.15;;;;;;;3.45;77.39;99744.03;1758085;81;21379;-87
2021/12/25 08:20:34;;;;;;;28.10;20.92;;;;;;;3.55;77.13;99760.47;1757897;81;20900;-85
2021/12/25 08:23:21;;;;;;;29.77;21.42;;;;;;;3.60;76.66;99745.53;1758007;81;21133;-83
2021/12/25 08:26:06;;;;;;;;;;;;;;;3.63;76.43;99754.48;1760642;81;20857;-86
2021/12/25 08:28:46;;;;;;;30.43;20.35;;;;;;;3.68;76.40;99757.24;1758142;81;21133;-84
2021/12/25 08:31:31;;;;;;;;;;;;;;;3.77;76.23;99770.70;1758348;81;21512;-81
2021/12/25 08:34:09;;;;;;;25.77;20.60;;;;;;;3.85;76.10;99772.05;1704952;81;20115;-83
2021/12/25 08:36:47;;;;;;;28.30;21.37;;;;;;;3.92;75.86;99766.95;1757223;81;20853;-84
2021/12/25 08:39:14;;;;;;;28.30;21.37;;;;;;;3.97;75.45;99764.14;1758524;80;21362;-82
2021/12/25 08:41:41;;;;;;;30.17;22.35;;;;;;;4.02;75.37;99769.11;1758634;80;21129;-82
2021/12/25 08:44:29;;;;;;;30.82;21.55;;;;;;;4.04;75.13;99773.31;1758122;81;20881;-83
2021/12/25 08:46:45;;;;;;;32.38;25.75;;;;;;;4.06;75.04;99773.25;1745313;80;20869;-82
2021/12/25 08:49:17;;;;;;;31.73;23.95;;;;;;;4.09;74.94;99760.13;1744954;81;20968;-84
2021/12/25 08:51:44;;;;;;;30.43;22.73;;;;;;;4.11;74.79;99755.27;1744697;81;21039;-80
2021/12/25 08:54:12;;;;;;;31.15;22.10;;;;;;;4.14;74.70;99760.77;1744622;81;21990;-81
2021/12/25 08:56:39;;;;;;;30.12;20.15;;;;;;;4.18;74.65;99750.63;1744459;82;20893;-79
2021/12/25 08:59:06;;;;;;;29.37;21.20;;;;;;;4.21;74.48;99764.75;1744659;82;20893;-79
2021/12/25 09:01:32;;;;;;;32.85;22.07;;;;;;;4.22;74.46;99746.95;1744608;81;20941;-80
2021/12/25 09:04:00;;;;;;;28.35;22.22;;;;;;;4.25;74.39;99743.39;1744778;80;21019;-81
2021/12/25 09:06:27;;;;;;;28.87;21.80;;;;;;;4.30;74.19;99744.00;1744443;81;21820;-80
2021/12/25 09:08:55;;;;;;;29.00;21.17;;;;;;;4.33;73.98;99738.66;1744458;81;20912;-79
2021/12/25 09:11:21;;;;;;;35.40;23.57;;;;;;;4.38;73.92;99754.00;1744786;82;20901;-79
2021/12/25 09:13:50;;;;;;;30.40;22.58;;;;;;;4.43;73.80;99761.97;1744539;81;21762;-81
2021/12/25 09:16:17;;;;;;;28.70;21.48;;;;;;;4.48;73.49;99764.34;1744537;81;20849;-80
2021/12/25 09:18:44;;;;;;;27.77;19.62;;;;;;;4.52;73.27;99769.30;1744831;81;21099;-77
2021/12/25 09:21:12;;;;;;;28.20;20.60;;;;;;;4.53;73.07;99774.86;1744535;81;21058;-78
2021/12/25 09:23:39;;;;;;;29.52;21.85;;;;;;;4.55;73.03;99782.13;1744852;81;21494;-76
2021/12/25 09:26:07;;;;;;;30.10;22.60;;;;;;;4.57;72.93;99782.06;1744549;81;20944;-79
2021/12/25 09:28:35;;;;;;;31.33;23.90;;;;;;;4.60;72.84;99782.36;1744610;81;21031;-81
2021/12/25 09:31:02;;;;;;;35.58;25.57;;;;;;;4.59;72.74;99771.14;1744913;81;21098;-80
2021/12/25 09:33:30;;;;;;;36.83;26.65;;;;;;;4.60;72.63;99754.63;1745313;82;20959;-78
2021/12/25 09:35:57;;;;;;;36.88;26.68;;;;;;;4.58;72.58;99756.48;1745292;80;20976;-80
2021/12/25 09:38:24;;;;;;;36.48;26.73;;;;;;;4.53;72.58;99751.49;1755161;80;21365;-82
2021/12/25 09:40:51;;;;;;;31.07;21.55;;;;;;;4.48;72.64;99748.76;1780804;80;20935;-78
2021/12/25 09:43:19;;;;;;;34.50;23.87;;;;;;;4.42;72.73;99749.88;1781039;79;21506;-80
2021/12/25 09:45:46;;;;;;;31.80;21.33;;;;;;;4.42;72.93;99751.18;1746007;81;21441;-79
2021/12/25 09:48:14;;;;;;;32.13;23.25;;;;;;;4.45;72.83;99758.84;1733374;82;20904;-77
2021/12/25 09:50:40;;;;;;;32.03;23.30;;;;;;;4.46;72.91;99768.30;1752137;82;21038;-78
2021/12/25 09:53:09;;;;;;;36.75;25.17;;;;;;;4.50;72.96;99753.42;1752230;82;20897;-78
2021/12/25 09:55:38;;;;;;;35.30;24.27;;;;;;;4.53;72.72;99782.65;1752417;82;21823;-76
2021/12/25 09:58:06;;;;;;;36.73;27.40;;;;;;;4.57;72.76;99793.74;1752550;82;20968;-79
2021/12/25 10:00:35;;;;;;;35.03;24.87;;;;;;;4.59;72.62;99801.47;1752193;82;20940;-79
2021/12/25 10:03:02;;;;;;;34.67;24.85;;;;;;;4.55;72.57;99789.91;1752243;82;20928;-78
2021/12/25 10:05:36;;;;;;;32.45;23.45;;;;;;;4.55;72.57;99790.38;1752326;82;21019;-79
2021/12/25 10:08:17;;;;;;;33.08;24.12;;;;;;;4.56;72.57;99792.91;1751138;82;21226;-79
2021/12/25 10:10:51;;;;;;;32.40;24.02;;;;;;;4.56;72.59;99783.82;1751555;82;20905;-77
2021/12/25 10:13:31;;;;;;;38.98;24.92;;;;;;;4.57;72.56;99792.44;1750694;81;20991;-80
2021/12/25 10:16:23;;;;;;;35.15;25.82;;;;;;;4.59;72.66;99800.17;1750896;82;21078;-80
2021/12/25 10:18:51;;;;;;;34.23;25.70;;;;;;;4.63;72.64;99801.23;1751252;82;21527;-79
2021/12/25 10:21:27;;;;;;;35.60;26.05;;;;;;;4.67;72.50;99792.39;1751774;82;21399;-79
2021/12/25 10:24:06;;;;;;;36.60;26.40;;;;;;;4.70;72.40;99778.41;1752306;82;21078;-80
2021/12/25 10:26:39;;;;;;;39.90;27.85;;;;;;;4.73;72.25;99783.44;1752313;82;20908;-81
2021/12/25 10:29:27;;;;;;;34.25;24.27;;;;;;;4.70;72.10;99776.64;1752406;82;20948;-80
2021/12/25 10:32:02;;;;;;;31.73;23.55;;;;;;;4.69;71.99;99774.11;1753786;82;20908;-82
2021/12/25 10:34:31;;;;;;;32.42;25.23;;;;;;;4.70;71.97;99792.23;1753550;82;21787;-80
2021/12/25 10:37:10;;;;;;;32.88;24.27;;;;;;;4.74;72.00;99791.16;1754526;82;20854;-83
2021/12/25 10:39:37;;;;;;;31.40;24.00;;;;;;;4.83;71.93;99793.77;1755225;82;20881;-78
2021/12/25 10:42:12;;;;;;;33.30;23.38;;;;;;;4.96;71.81;99792.24;1753904;82;20936;-84
2021/12/25 10:44:47;;;;;;;37.10;25.48;;;;;;;5.13;71.75;99784.04;1728557;82;20983;-86
2021/12/25 10:47:23;;;;;;;35.35;24.30;;;;;;;5.31;71.32;99792.19;1732066;81;21149;-83
2021/12/25 10:50:10;;;;;;;30.12;21.95;;;;;;;5.42;70.71;99786.90;1781360;80;20932;-81
2021/12/25 10:52:46;;;;;;;30.68;21.25;;;;;;;5.45;70.08;99791.49;1781224;80;20975;-79
2021/12/25 10:55:18;;;;;;;28.23;20.27;;;;;;;5.43;69.66;99792.50;1781606;80;20970;-83
2021/12/25 10:57:53;;;;;;;32.48;22.80;;;;;;;5.35;69.62;99788.98;1781432;80;20900;-88
2021/12/25 11:00:28;;;;;;;44.05;25.80;;;;;;;5.26;69.75;99785.09;1781141;80;21114;-86
2021/12/25 11:03:08;;;;;;;31.77;22.98;;;;;;;5.19;69.96;99780.67;1777074;79;20915;-87
2021/12/25 11:05:40;;;;;;;31.77;21.10;;;;;;;5.16;70.15;99773.51;1781290;80;20849;-83
2021/12/25 11:08:22;;;;;;;28.40;20.92;;;;;;;5.13;70.17;99773.64;1776910;79;20852;-85
2021/12/25 11:10:54;;;;;;;33.30;23.27;;;;;;;5.12;70.28;99796.67;1781519;80;20829;-86
2021/12/25 11:13:43;;;;;;;35.15;24.60;;;;;;;5.12;70.44;99796.67;1781300;80;21137;-88
2021/12/25 11:16:23;;;;;;;34.20;25.02;;;;;;;5.15;70.58;99809.03;1776845;79;20951;-89
2021/12/25 11:19:07;;;;;;;35.75;23.67;;;;;;;5.15;70.46;99809.49;1781271;79;20928;-81
2021/12/25 11:21:55;;;;;;;35.68;23.73;;;;;;;5.10;70.46;99791.53;1780812;80;20943;-83
2021/12/25 11:24:27;;;;;;;34.92;25.25;;;;;;;5.03;70.55;99795.84;1781722;79;20998;-85
2021/12/25 11:26:59;;;;;;;38.10;25.35;;;;;;;4.92;70.68;99801.09;1744028;81;20945;-81
2021/12/25 11:29:28;;;;;;;39.20;26.97;;;;;;;4.84;70.85;99803.70;1744179;82;20928;-82
2021/12/25 11:31:57;;;;;;;39.27;27.55;;;;;;;4.75;70.96;99802.39;1718078;83;20957;-81
2021/12/25 11:34:25;;;;;;;34.60;25.50;;;;;;;4.66;71.22;99824.91;1783115;79;20916;-80
2021/12/25 11:36:53;;;;;;;34.30;24.75;;;;;;;4.62;71.52;99823.38;1782179;80;20971;-81
2021/12/25 11:39:22;;;;;;;31.60;24.70;;;;;;;4.63;71.76;99829.80;1744999;82;21062;-82
2021/12/25 11:41:50;;;;;;;41.05;26.75;;;;;;;4.65;71.84;99836.23;1744150;82;21019;-89
2021/12/25 11:44:41;;;;;;;38.83;23.95;;;;;;;4.67;71.82;99840.43;1717630;82;20909;-80
2021/12/25 11:47:06;;;;;;;43.60;29.85;;;;;;;4.69;71.66;99854.19;1780296;80;20896;-81
2021/12/25 11:49:33;;;;;;;90.72;43.38;;;;;;;4.68;71.53;99861.58;1780982;80;21434;-82
2021/12/25 11:52:17;;;;;;;49.93;32.15;;;;;;;4.63;71.47;99855.77;1750742;80;21193;-84
2021/12/25 12:00:58;;;;;;;35.48;24.60;;;;;;;4.38;71.92;99854.80;1816371;78;23007;-77
2021/12/25 12:03:46;;;;;;;38.60;26.77;;;;;;;4.30;72.12;99864.69;1789633;80;20880;-82
2021/12/25 12:06:14;;;;;;;35.52;24.30;;;;;;;4.31;72.25;99885.39;1789737;80;21441;-79
2021/12/25 12:09:00;;;;;;;34.25;24.10;;;;;;;4.35;72.34;99895.98;1789483;80;21374;-80
2021/12/25 12:11:37;;;;;;;33.40;24.60;;;;;;;4.39;72.38;99896.70;1785460;80;28164;-80
2021/12/25 12:14:20;;;;;;;35.88;25.25;;;;;;;4.54;72.58;99909.44;1789687;80;20888;-80
2021/12/25 12:17:02;;;;;;;34.10;23.73;;;;;;;4.67;72.17;99918.77;1789607;79;20923;-85
2021/12/25 12:19:37;;;;;;;32.93;25.00;;;;;;;4.71;71.70;99923.78;1787729;80;21157;-83
2021/12/25 12:23:06;;;;;;;34.88;24.80;;;;;;;4.74;71.57;99931.41;1789656;80;20931;-81
2021/12/25 12:27:43;;;;;;;32.08;24.02;;;;;;;4.76;71.23;99943.05;1789151;80;20916;-83
2021/12/25 12:30:13;;;;;;;34.35;22.93;;;;;;;4.73;71.14;99954.86;1682271;84;21038;-83
2021/12/25 12:32:44;;;;;;;32.83;23.18;;;;;;;4.69;71.18;99955.47;1682262;85;20933;-80
2021/12/25 12:35:38;;;;;;;35.10;23.52;;;;;;;4.67;71.20;99949.50;1682964;85;20978;-82
2021/12/25 12:38:43;;;;;;;33.08;23.57;;;;;;;4.64;71.23;99950.92;1662531;85;21027;-81
2021/12/25 12:41:33;;;;;;;31.42;23.83;;;;;;;4.63;71.28;99964.00;1683252;83;20945;-84
2021/12/25 12:44:20;;;;;;;34.08;24.60;;;;;;;4.59;71.33;99972.84;1682632;85;20908;-82
2021/12/25 12:46:54;;;;;;;37.08;24.87;;;;;;;4.54;71.39;99969.16;1675944;85;21161;-79
2021/12/25 12:49:51;;;;;;;36.77;25.85;;;;;;;4.50;71.46;99975.39;1681822;85;20978;-81
2021/12/25 12:52:34;;;;;;;35.75;24.82;;;;;;;4.48;71.51;99970.27;1682094;85;20995;-81
2021/12/25 12:55:26;;;;;;;36.17;25.80;;;;;;;4.44;71.50;99975.20;1682135;84;20870;-80
2021/12/25 12:58:18;;;;;;;33.60;24.12;;;;;;;4.41;71.48;99971.46;1681857;85;20881;-81
2021/12/25 13:00:55;;;;;;;38.05;25.50;;;;;;;4.38;71.52;99976.80;1679752;85;21152;-80
2021/12/25 13:03:25;;;;;;;35.35;25.75;;;;;;;4.36;71.63;99985.11;1679110;84;21462;-80
2021/12/25 13:06:03;;;;;;;38.65;24.87;;;;;;;4.35;71.71;99991.20;1679448;85;20924;-81
2021/12/25 13:08:31;;;;;;;38.38;28.32;;;;;;;4.35;71.82;99996.39;1772982;80;20944;-83
2021/12/25 13:11:09;;;;;;;35.30;23.95;;;;;;;4.37;71.92;99995.86;1786650;80;20896;-84
2021/12/25 13:13:40;;;;;;;35.80;26.55;;;;;;;4.39;71.92;99993.21;1785564;80;20998;-87